createdAt,value
2022-10-18T00:00:10.289Z,76.70
2022-10-18T00:02:39.755Z,76.78
2022-10-18T00:05:09.146Z,76.86
2022-10-18T00:07:37.615Z,76.90
2022-10-18T00:10:07.894Z,76.76
2022-10-18T00:12:36.011Z,76.76
2022-10-18T00:15:07.598Z,76.84
2022-10-18T00:17:36.769Z,76.93
2022-10-18T00:20:07.722Z,76.78
2022-10-18T00:22:37.582Z,76.68
2022-10-18T00:25:08.211Z,76.78
2022-10-18T00:27:37.257Z,76.89
2022-10-18T00:30:07.410Z,77.20
2022-10-18T00:32:37.903Z,77.51
2022-10-18T00:35:06.054Z,77.48
2022-10-18T00:37:35.295Z,77.56
2022-10-18T00:40:04.509Z,77.43
2022-10-18T00:42:35.223Z,77.37
2022-10-18T00:45:15.547Z,77.65
2022-10-18T00:47:46.902Z,77.80
2022-10-18T00:50:16.076Z,77.67
2022-10-18T00:52:48.039Z,77.83
2022-10-18T00:55:16.607Z,77.83
2022-10-18T00:57:46.619Z,78.02
2022-10-18T01:00:15.885Z,78.04
2022-10-18T01:02:46.359Z,77.98
2022-10-18T01:05:17.077Z,77.95
2022-10-18T01:08:18.737Z,77.96
2022-10-18T01:10:56.676Z,77.84
2022-10-18T01:13:39.361Z,77.93
2022-10-18T01:16:15.447Z,78.24
2022-10-18T01:18:51.617Z,78.02
2022-10-18T01:21:33.188Z,77.91
2022-10-18T01:24:36.644Z,77.96
2022-10-18T01:27:30.832Z,78.14
2022-10-18T01:30:37.676Z,78.41
2022-10-18T01:33:16.693Z,78.67
2022-10-18T01:35:52.548Z,78.67
2022-10-18T01:38:23.778Z,78.62
2022-10-18T01:40:55.010Z,78.71
2022-10-18T01:43:25.733Z,78.52
2022-10-18T01:45:55.586Z,78.63
2022-10-18T01:48:24.592Z,78.77
2022-10-18T01:50:53.897Z,78.88
2022-10-18T01:53:31.244Z,79.01
2022-10-18T01:56:17.944Z,79.11
2022-10-18T01:58:55.345Z,79.09
2022-10-18T02:01:33.556Z,79.14
2022-10-18T02:04:14.040Z,79.06
2022-10-18T02:06:45.087Z,78.97
2022-10-18T02:09:19.945Z,78.87
2022-10-18T02:11:53.074Z,78.95
2022-10-18T02:14:24.407Z,78.92
2022-10-18T02:16:57.005Z,78.96
2022-10-18T02:19:30.075Z,78.96
2022-10-18T02:21:59.759Z,78.72
2022-10-18T02:24:34.143Z,78.83
2022-10-18T02:27:03.318Z,78.98
2022-10-18T02:29:33.471Z,79.11
2022-10-18T02:32:08.852Z,79.07
2022-10-18T02:34:41.305Z,79.09
2022-10-18T02:37:11.802Z,79.23
2022-10-18T02:39:45.782Z,79.18
2022-10-18T02:42:15.647Z,79.31
2022-10-18T02:44:44.195Z,79.42
2022-10-18T02:47:13.391Z,79.65
2022-10-18T02:49:41.865Z,79.77
2022-10-18T02:52:10.358Z,79.88
2022-10-18T02:54:38.836Z,79.88
2022-10-18T02:57:08.037Z,79.76
2022-10-18T02:59:36.503Z,79.78
2022-10-18T03:02:05.140Z,79.72
2022-10-18T03:04:33.619Z,79.63
2022-10-18T03:07:02.103Z,79.66
2022-10-18T03:09:30.615Z,79.67
2022-10-18T03:11:59.476Z,79.84
2022-10-18T03:14:28.022Z,79.98
2022-10-18T03:16:56.584Z,79.95
2022-10-18T03:19:25.078Z,80.03
2022-10-18T03:21:53.620Z,80.11
2022-10-18T03:24:22.212Z,80.08
2022-10-18T03:26:50.708Z,80.19
2022-10-18T03:29:19.253Z,80.34
2022-10-18T03:31:47.729Z,80.43
2022-10-18T03:34:17.218Z,80.36
2022-10-18T03:36:45.760Z,80.43
2022-10-18T03:39:14.414Z,80.48
2022-10-18T03:41:42.933Z,80.61
2022-10-18T03:44:11.772Z,80.77
2022-10-18T03:46:40.393Z,80.74
2022-10-18T03:49:08.932Z,80.73
2022-10-18T03:51:37.430Z,80.72
2022-10-18T03:54:05.968Z,80.68
2022-10-18T03:56:34.514Z,80.68
2022-10-18T03:59:03.996Z,80.58
2022-10-18T04:01:32.623Z,80.62
2022-10-18T04:04:44.254Z,80.69
2022-10-18T04:07:05.275Z,80.43
2022-10-18T04:09:33.770Z,80.72
2022-10-18T04:12:02.292Z,80.97
2022-10-18T04:14:30.976Z,81.25
2022-10-18T04:16:59.528Z,81.30
2022-10-18T04:19:28.079Z,81.34
2022-10-18T04:21:56.589Z,81.44
2022-10-18T04:24:25.337Z,81.47
2022-10-18T04:26:53.826Z,81.65
2022-10-18T04:29:22.612Z,81.86
2022-10-18T04:31:51.206Z,82.04
2022-10-18T04:34:19.757Z,82.26
2022-10-18T04:36:48.288Z,82.24
2022-10-18T04:39:17.095Z,82.07
2022-10-18T04:41:45.634Z,81.95
2022-10-18T04:44:14.335Z,81.82
2022-10-18T04:46:42.965Z,81.89
2022-10-18T04:49:11.401Z,82.01
2022-10-18T04:51:39.828Z,82.01
2022-10-18T04:54:08.370Z,81.92
2022-10-18T04:56:36.828Z,81.85
2022-10-18T04:59:05.433Z,81.97
2022-10-18T05:01:34.000Z,82.18
2022-10-18T05:04:03.483Z,82.28
2022-10-18T05:06:32.496Z,82.33
2022-10-18T05:09:02.524Z,82.10
2022-10-18T05:11:31.391Z,81.89
2022-10-18T05:14:00.242Z,81.92
2022-10-18T05:16:29.481Z,81.80
2022-10-18T05:18:58.398Z,81.85
2022-10-18T05:21:27.031Z,81.93
2022-10-18T05:23:56.968Z,81.82
2022-10-18T05:26:25.574Z,81.92
2022-10-18T05:28:54.084Z,81.83
2022-10-18T05:31:22.661Z,82.05
2022-10-18T05:34:03.380Z,81.98
2022-10-18T05:36:32.247Z,82.04
2022-10-18T05:39:04.927Z,82.24
2022-10-18T05:41:33.962Z,82.35
2022-10-18T05:44:05.302Z,82.28
2022-10-18T05:46:34.897Z,82.35
2022-10-18T05:49:03.683Z,82.35
2022-10-18T05:51:32.259Z,82.03
2022-10-18T05:54:00.782Z,81.95
2022-10-18T05:56:29.387Z,82.10
2022-10-18T05:58:57.878Z,82.42
2022-10-18T06:01:26.385Z,82.52
2022-10-18T06:03:56.026Z,82.44
2022-10-18T06:06:24.637Z,82.65
2022-10-18T06:08:53.172Z,82.83
2022-10-18T06:11:22.154Z,83.03
2022-10-18T06:13:51.966Z,83.11
2022-10-18T06:16:22.866Z,83.25
2022-10-18T06:18:53.348Z,83.35
2022-10-18T06:21:21.669Z,83.37
2022-10-18T06:23:58.558Z,83.43
2022-10-18T06:26:28.696Z,83.43
2022-10-18T06:28:57.411Z,83.27
2022-10-18T06:31:26.566Z,82.88
2022-10-18T06:34:19.345Z,83.10
2022-10-18T06:40:05.577Z,83.19
2022-10-18T06:42:35.529Z,83.13
2022-10-18T06:45:05.577Z,82.75
2022-10-18T06:47:34.418Z,82.86
2022-10-18T06:50:03.089Z,83.16
2022-10-18T06:52:32.033Z,83.29
2022-10-18T06:55:08.404Z,83.32
2022-10-18T06:57:37.792Z,83.34
2022-10-18T07:00:08.170Z,83.38
2022-10-18T07:02:37.046Z,83.33
2022-10-18T07:05:06.669Z,83.38
2022-10-18T07:07:35.613Z,83.41
2022-10-18T07:10:06.524Z,83.57
2022-10-18T07:12:45.036Z,83.69
2022-10-18T07:15:13.754Z,83.64
2022-10-18T07:17:44.604Z,83.58
2022-10-18T07:20:13.415Z,83.49
2022-10-18T07:22:42.295Z,83.45
2022-10-18T07:25:11.306Z,83.51
2022-10-18T07:27:41.757Z,83.51
2022-10-18T07:30:12.044Z,83.58
2022-10-18T07:33:09.596Z,83.49
2022-10-18T07:35:40.457Z,83.54
2022-10-18T07:38:09.345Z,83.46
2022-10-18T07:40:38.329Z,83.40
2022-10-18T07:43:10.298Z,83.51
2022-10-18T07:52:27.084Z,83.63
2022-10-18T07:54:56.303Z,83.57
2022-10-18T07:57:30.912Z,83.68
2022-10-18T08:00:01.182Z,83.80
2022-10-18T08:02:40.671Z,83.93
2022-10-18T08:05:13.243Z,84.13
2022-10-18T08:07:47.145Z,84.03
2022-10-18T08:10:49.554Z,84.10
2022-10-18T08:13:19.267Z,84.11
2022-10-18T08:15:48.641Z,84.13
2022-10-18T08:18:17.429Z,84.11
2022-10-18T08:20:46.931Z,84.29
2022-10-18T08:23:15.799Z,84.20
2022-10-18T08:25:55.615Z,84.11
2022-10-18T08:28:24.599Z,84.06
2022-10-18T08:30:53.285Z,84.19
2022-10-18T08:33:21.981Z,84.05
2022-10-18T08:35:56.501Z,83.99
2022-10-18T08:38:35.936Z,83.67
2022-10-18T08:41:23.613Z,83.48
2022-10-18T08:44:06.284Z,83.27
2022-10-18T08:46:38.999Z,82.80
2022-10-18T08:49:22.599Z,81.78
2022-10-18T08:51:53.694Z,81.37
2022-10-18T08:54:31.529Z,81.22
2022-10-18T08:57:02.897Z,81.37
2022-10-18T08:59:38.445Z,81.43
2022-10-18T09:02:20.631Z,81.62
2022-10-18T09:04:57.589Z,81.68
2022-10-18T09:07:45.711Z,81.60
2022-10-18T09:10:26.677Z,81.39
2022-10-18T09:13:17.537Z,81.15
2022-10-18T09:15:51.803Z,81.15
2022-10-18T09:18:34.716Z,81.10
2022-10-18T09:21:17.711Z,80.80
2022-10-18T09:23:49.949Z,80.14
2022-10-18T09:26:21.446Z,79.64
2022-10-18T09:29:03.853Z,79.25
2022-10-18T09:31:43.943Z,78.63
2022-10-18T09:34:19.742Z,78.05
2022-10-18T09:36:52.180Z,77.89
2022-10-18T09:39:25.741Z,77.53
2022-10-18T09:41:57.990Z,77.02
2022-10-18T09:44:31.034Z,76.46
2022-10-18T09:47:02.904Z,76.27
2022-10-18T09:49:36.609Z,75.92
2022-10-18T09:52:14.281Z,75.79
2022-10-18T09:54:55.002Z,75.46
2022-10-18T09:57:31.389Z,75.42
2022-10-18T10:00:02.716Z,75.74
2022-10-18T10:02:33.916Z,76.03
2022-10-18T10:05:02.872Z,76.16
2022-10-18T10:07:41.609Z,76.43
2022-10-18T10:10:16.976Z,76.80
2022-10-18T10:12:45.984Z,77.15
2022-10-18T10:15:22.237Z,77.55
2022-10-18T10:18:00.561Z,78.01
2022-10-18T10:20:37.221Z,78.15
2022-10-18T10:23:15.966Z,78.20
2022-10-18T10:25:50.380Z,78.19
2022-10-18T10:29:56.640Z,78.23
2022-10-18T10:32:31.553Z,77.81
2022-10-18T10:35:02.881Z,77.00
2022-10-18T10:37:37.850Z,76.43
2022-10-18T10:40:22.054Z,75.76
2022-10-18T10:43:36.446Z,75.20
2022-10-18T10:46:11.460Z,74.27
2022-10-18T10:48:52.158Z,72.90
2022-10-18T10:51:34.781Z,67.46
2022-10-18T10:54:11.908Z,61.45
2022-10-18T10:56:57.079Z,57.42
2022-10-18T10:59:32.417Z,53.71
2022-10-18T11:03:05.993Z,50.66
2022-10-18T11:05:56.430Z,48.24
2022-10-18T11:11:29.602Z,47.22
2022-10-18T11:14:25.170Z,48.12
2022-10-18T11:17:16.242Z,48.85
2022-10-18T11:20:03.978Z,49.03
2022-10-18T11:22:41.248Z,49.93
2022-10-18T11:25:18.187Z,50.84
2022-10-18T11:28:00.903Z,50.98
2022-10-18T11:30:50.076Z,51.48
2022-10-18T11:33:56.373Z,52.24
2022-10-18T11:36:30.539Z,52.50
2022-10-18T11:39:09.853Z,53.26
2022-10-18T11:41:50.836Z,53.18
2022-10-18T11:44:31.766Z,50.47
2022-10-18T11:47:13.171Z,46.09
2022-10-18T11:50:00.988Z,42.86
2022-10-18T11:52:41.696Z,42.96
2022-10-18T11:55:30.293Z,42.79
2022-10-18T11:58:19.723Z,40.99
2022-10-18T12:00:53.743Z,38.13
2022-10-18T12:03:46.786Z,36.93
2022-10-18T12:06:22.215Z,34.81
2022-10-18T12:08:59.705Z,31.91
2022-10-18T12:11:33.935Z,31.08
2022-10-18T12:14:09.381Z,31.32
2022-10-18T12:16:51.581Z,32.21
2022-10-18T12:19:27.460Z,30.94
2022-10-18T12:22:12.301Z,30.52
2022-10-18T12:24:44.324Z,30.50
2022-10-18T12:27:18.695Z,30.28
2022-10-18T12:29:57.821Z,29.99
2022-10-18T12:32:33.833Z,30.45
2022-10-18T12:35:11.750Z,30.87
2022-10-18T12:37:59.299Z,32.07
2022-10-18T12:40:38.564Z,33.22
2022-10-18T12:43:19.046Z,34.57
2022-10-18T12:45:56.616Z,35.20
2022-10-18T12:48:39.003Z,35.73
2022-10-18T12:51:17.202Z,35.53
2022-10-18T12:53:52.855Z,35.08
2022-10-18T12:56:42.991Z,34.66
2022-10-18T12:59:51.322Z,34.13
2022-10-18T13:02:31.915Z,33.81
2022-10-18T13:05:41.003Z,34.96
2022-10-18T13:08:42.208Z,35.69
2022-10-18T13:11:37.251Z,35.72
2022-10-18T13:14:41.099Z,34.37
2022-10-18T13:17:33.581Z,33.86
2022-10-18T13:20:27.024Z,34.04
2022-10-18T13:23:11.585Z,34.68
2022-10-18T13:25:56.258Z,36.45
2022-10-18T13:28:37.018Z,37.74
2022-10-18T13:31:20.524Z,39.21
2022-10-18T13:33:51.856Z,41.22
2022-10-18T13:36:30.455Z,43.24
2022-10-18T13:39:19.910Z,44.55
2022-10-18T13:42:29.241Z,44.82
2022-10-18T13:45:51.241Z,45.60
2022-10-18T13:48:50.541Z,47.14
2022-10-18T13:51:45.775Z,48.33
2022-10-18T13:54:53.035Z,48.72
2022-10-18T13:57:37.645Z,49.40
2022-10-18T14:00:28.746Z,49.85
2022-10-18T14:03:55.641Z,51.15
2022-10-18T14:06:25.272Z,52.83
2022-10-18T14:09:09.482Z,53.98
2022-10-18T14:11:55.295Z,54.99
2022-10-18T14:14:34.544Z,55.51
2022-10-18T14:17:17.791Z,54.99
2022-10-18T14:19:53.849Z,54.76
2022-10-18T14:22:28.104Z,54.68
2022-10-18T14:25:00.682Z,54.51
2022-10-18T14:27:33.599Z,54.45
2022-10-18T14:30:15.699Z,54.45
2022-10-18T14:32:49.022Z,54.34
2022-10-18T14:35:38.136Z,54.40
2022-10-18T14:38:16.783Z,54.84
2022-10-18T14:40:48.040Z,55.32
2022-10-18T14:43:22.191Z,55.76
2022-10-18T14:45:53.403Z,56.21
2022-10-18T14:48:25.338Z,56.83
2022-10-18T14:51:00.752Z,57.42
2022-10-18T14:53:39.083Z,58.12
2022-10-18T14:56:21.797Z,58.84
2022-10-18T14:58:54.572Z,59.48
2022-10-18T15:01:29.351Z,59.83
2022-10-18T15:04:04.001Z,60.22
2022-10-18T15:06:37.297Z,60.69
2022-10-18T15:09:11.283Z,61.16
2022-10-18T15:11:46.063Z,61.46
2022-10-18T15:14:20.253Z,61.92
2022-10-18T15:16:54.300Z,62.16
2022-10-18T15:19:32.485Z,62.47
2022-10-18T15:22:31.249Z,62.59
2022-10-18T15:25:29.307Z,62.69
2022-10-18T15:28:04.055Z,62.86
2022-10-18T15:30:42.735Z,62.71
2022-10-18T15:33:25.074Z,62.44
2022-10-18T15:35:56.507Z,62.53
2022-10-18T15:38:32.843Z,62.64
2022-10-18T15:41:04.385Z,62.74
2022-10-18T15:43:39.182Z,62.84
2022-10-18T15:46:32.914Z,62.73
2022-10-18T15:49:42.976Z,62.78
2022-10-18T15:52:37.460Z,62.61
2022-10-18T15:55:40.095Z,62.28
2022-10-18T15:58:18.158Z,62.32
2022-10-18T16:00:50.969Z,62.80
2022-10-18T16:03:24.217Z,63.23
2022-10-18T16:05:59.570Z,63.56
2022-10-18T16:08:32.537Z,64.25
2022-10-18T16:11:04.504Z,64.61
2022-10-18T16:13:35.687Z,65.07
2022-10-18T16:16:07.218Z,65.66
2022-10-18T16:18:38.499Z,66.34
2022-10-18T16:21:16.990Z,66.96
2022-10-18T16:23:48.442Z,67.30
2022-10-18T16:26:20.831Z,67.86
2022-10-18T16:28:52.637Z,68.28
2022-10-18T16:31:26.082Z,69.18
2022-10-18T16:33:57.980Z,69.47
2022-10-18T16:36:30.899Z,69.94
2022-10-18T16:39:07.734Z,70.05
2022-10-18T16:41:38.992Z,69.93
2022-10-18T16:44:10.271Z,70.07
2022-10-18T16:46:42.198Z,70.21
2022-10-18T16:49:24.029Z,70.21
2022-10-18T16:51:56.370Z,70.49
2022-10-18T16:54:28.206Z,70.62
2022-10-18T16:57:00.438Z,71.09
2022-10-18T16:59:32.839Z,71.21
2022-10-18T17:02:09.082Z,71.30
2022-10-18T17:04:40.464Z,71.62
2022-10-18T17:09:57.753Z,71.95
2022-10-18T17:12:29.011Z,72.37
2022-10-18T17:15:00.305Z,72.55
2022-10-18T17:17:31.818Z,72.76
2022-10-18T17:20:03.551Z,73.28
2022-10-18T17:22:35.050Z,73.58
2022-10-18T17:25:07.064Z,73.72
2022-10-18T17:27:38.361Z,74.08
2022-10-18T17:30:11.898Z,74.39
2022-10-18T17:32:44.843Z,74.86
2022-10-18T17:35:16.303Z,75.25
2022-10-18T17:37:52.207Z,75.77
2022-10-18T17:40:24.193Z,76.40
2022-10-18T17:42:55.963Z,77.07
2022-10-18T17:45:27.930Z,77.23
2022-10-18T17:47:59.184Z,77.25
2022-10-18T17:50:30.489Z,77.57
2022-10-18T17:53:01.773Z,78.07
2022-10-18T17:55:33.108Z,78.14
2022-10-18T17:58:04.700Z,78.29
2022-10-18T18:00:36.210Z,78.63
2022-10-18T18:03:07.894Z,79.05
2022-10-18T18:05:43.090Z,79.24
2022-10-18T18:08:16.855Z,79.64
2022-10-18T18:10:54.940Z,79.86
2022-10-18T18:13:26.538Z,80.25
2022-10-18T18:15:59.845Z,80.68
2022-10-18T18:18:31.341Z,81.00
2022-10-18T18:21:05.410Z,81.19
2022-10-18T18:23:38.302Z,81.29
2022-10-18T18:26:09.772Z,81.66
2022-10-18T18:28:41.185Z,82.06
2022-10-18T18:31:14.429Z,82.32
2022-10-18T18:33:46.154Z,82.22
2022-10-18T18:36:17.737Z,82.29
2022-10-18T18:38:49.979Z,82.59
2022-10-18T18:41:24.546Z,82.84
2022-10-18T18:43:57.477Z,82.92
2022-10-18T18:46:30.243Z,82.77
2022-10-18T18:49:01.567Z,83.12
2022-10-18T18:51:33.374Z,83.22
2022-10-18T18:54:05.170Z,83.51
2022-10-18T18:56:36.757Z,83.71
2022-10-18T18:59:08.268Z,83.80
2022-10-18T19:01:40.101Z,83.57
2022-10-18T19:04:12.351Z,83.70
2022-10-18T19:06:45.601Z,83.99
2022-10-18T19:09:22.189Z,83.91
2022-10-18T19:11:55.421Z,84.04
2022-10-18T19:14:29.267Z,84.34
2022-10-18T19:17:01.739Z,84.41
2022-10-18T19:19:34.254Z,84.47
2022-10-18T19:22:08.644Z,84.50
2022-10-18T19:24:40.157Z,84.64
2022-10-18T19:27:13.144Z,84.74
2022-10-18T19:29:46.184Z,84.73
2022-10-18T19:32:19.083Z,84.71
2022-10-18T19:34:50.405Z,84.95
2022-10-18T19:37:21.664Z,84.93
2022-10-18T19:39:53.013Z,84.77
2022-10-18T19:42:28.954Z,85.05
2022-10-18T19:45:03.138Z,85.12
2022-10-18T19:47:34.449Z,85.24
2022-10-18T19:50:06.040Z,85.43
2022-10-18T19:52:37.420Z,85.66
2022-10-18T19:55:10.071Z,85.67
2022-10-18T19:57:41.471Z,85.60
2022-10-18T20:00:17.373Z,85.58
2022-10-18T20:02:50.690Z,85.60
2022-10-18T20:05:22.121Z,85.67
2022-10-18T20:07:53.457Z,85.91
2022-10-18T20:10:24.756Z,85.91
2022-10-18T20:12:56.005Z,85.80
2022-10-18T20:15:27.762Z,85.93
2022-10-18T20:18:00.302Z,85.91
2022-10-18T20:20:31.595Z,85.99
2022-10-18T20:23:03.018Z,85.98
2022-10-18T20:25:34.392Z,86.28
2022-10-18T20:28:05.935Z,86.34
2022-10-18T20:30:37.393Z,86.41
2022-10-18T20:33:08.711Z,86.27
2022-10-18T20:35:40.110Z,86.34
2022-10-18T20:38:11.388Z,86.12
2022-10-18T20:40:42.736Z,86.14
2022-10-18T20:43:14.086Z,86.17
2022-10-18T20:45:45.396Z,86.32
2022-10-18T20:48:16.725Z,86.25
2022-10-18T20:50:48.079Z,86.45
2022-10-18T20:53:19.470Z,86.36
2022-10-18T20:55:51.127Z,86.31
2022-10-18T20:58:22.432Z,86.43
2022-10-18T21:00:53.772Z,86.48
2022-10-18T21:03:25.220Z,86.49
2022-10-18T21:05:56.609Z,86.47
2022-10-18T21:08:27.942Z,86.64
2022-10-18T21:11:01.707Z,86.71
2022-10-18T21:13:33.096Z,86.67
2022-10-18T21:16:06.098Z,86.70
2022-10-18T21:18:40.505Z,86.76
2022-10-18T21:23:50.570Z,86.84
2022-10-18T21:26:24.426Z,86.97
2022-10-18T21:28:57.933Z,86.99
2022-10-18T21:31:31.026Z,86.84
2022-10-18T21:34:04.523Z,86.84
2022-10-18T21:36:38.844Z,86.73
2022-10-18T21:39:14.920Z,86.73
2022-10-18T21:41:46.799Z,86.67
2022-10-18T21:44:18.813Z,86.63
2022-10-18T21:46:50.114Z,86.69
2022-10-18T21:49:25.110Z,86.71
2022-10-18T21:51:57.142Z,86.87
2022-10-18T21:57:29.812Z,86.95
2022-10-18T22:00:01.348Z,87.05
2022-10-18T22:02:33.063Z,87.13
2022-10-18T22:05:08.275Z,87.27
2022-10-18T22:07:42.853Z,87.34
2022-10-18T22:10:14.591Z,87.44
2022-10-18T22:12:45.897Z,87.43
2022-10-18T22:15:17.466Z,87.65
2022-10-18T22:17:52.367Z,87.70
2022-10-18T22:20:24.019Z,87.70
2022-10-18T22:22:57.038Z,87.97
2022-10-18T22:25:28.763Z,87.75
2022-10-18T22:28:00.241Z,87.60
2022-10-18T22:30:31.769Z,87.69
2022-10-18T22:33:04.828Z,87.73
2022-10-18T22:35:36.514Z,87.53
2022-10-18T22:38:07.943Z,87.58
2022-10-18T22:40:40.446Z,87.63
2022-10-18T22:43:11.918Z,87.72
2022-10-18T22:45:45.040Z,87.51
2022-10-18T22:48:16.337Z,87.32
2022-10-18T22:50:47.594Z,87.04
2022-10-18T22:53:18.895Z,86.92
2022-10-18T22:55:51.150Z,86.81
2022-10-18T22:58:22.981Z,86.70
2022-10-18T23:01:00.623Z,86.72
2022-10-18T23:03:32.111Z,86.81
2022-10-18T23:06:03.667Z,86.85
2022-10-18T23:08:35.015Z,87.05
2022-10-18T23:11:06.353Z,87.21
2022-10-18T23:13:39.531Z,86.99
2022-10-18T23:16:11.212Z,87.04
2022-10-18T23:18:42.573Z,87.02
2022-10-18T23:21:15.235Z,86.96
2022-10-18T23:23:46.935Z,86.97
2022-10-18T23:26:21.119Z,86.87
2022-10-18T23:28:54.208Z,86.78
2022-10-18T23:31:27.719Z,86.65
2022-10-18T23:34:00.919Z,86.86
2022-10-18T23:36:33.370Z,87.09
2022-10-18T23:39:05.330Z,87.27
2022-10-18T23:41:37.002Z,87.28
2022-10-18T23:44:09.196Z,87.05
2022-10-18T23:46:40.456Z,87.03
2022-10-18T23:49:12.031Z,86.95
2022-10-18T23:51:43.260Z,86.88
2022-10-18T23:54:14.515Z,86.70
2022-10-18T23:56:45.966Z,86.59
2022-10-18T23:59:17.444Z,86.54
